createdAt,value
2018-12-23T00:00:47.206Z,1.67
2018-12-23T00:03:14.645Z,2.30
2018-12-23T00:05:42.976Z,2.40
2018-12-23T00:08:10.455Z,2.37
2018-12-23T00:10:37.963Z,1.97
2018-12-23T00:13:05.369Z,1.93
2018-12-23T00:15:32.796Z,2.60
2018-12-23T00:18:00.285Z,2.30
2018-12-23T00:20:27.686Z,2.33
2018-12-23T00:22:55.141Z,2.90
2018-12-23T00:25:23.474Z,2.07
2018-12-23T00:27:50.983Z,2.43
2018-12-23T00:30:18.542Z,2.40
2018-12-23T00:32:45.953Z,2.10
2018-12-23T00:35:20.349Z,2.50
2018-12-23T00:37:42.788Z,2.73
2018-12-23T00:40:10.274Z,2.37
2018-12-23T00:42:37.645Z,1.87
2018-12-23T00:45:05.613Z,2.63
2018-12-23T00:47:33.026Z,2.20
2018-12-23T00:50:00.525Z,1.60
2018-12-23T00:52:27.944Z,2.07
2018-12-23T00:54:55.426Z,1.90
2018-12-23T00:57:22.847Z,2.00
2018-12-23T00:59:50.258Z,1.80
2018-12-23T01:02:17.737Z,1.80
2018-12-23T01:04:45.285Z,1.87
2018-12-23T01:07:12.800Z,1.67
2018-12-23T01:09:40.277Z,2.03
2018-12-23T01:12:07.700Z,2.60
2018-12-23T01:14:35.117Z,1.80
2018-12-23T01:17:02.575Z,2.50
2018-12-23T01:19:29.986Z,1.90
2018-12-23T01:21:57.402Z,1.87
2018-12-23T01:24:24.811Z,2.00
2018-12-23T01:26:52.216Z,1.73
2018-12-23T01:29:19.637Z,1.90
2018-12-23T01:31:47.086Z,3.27
2018-12-23T01:34:14.516Z,2.10
2018-12-23T01:36:41.905Z,1.43
2018-12-23T01:39:09.339Z,2.00
2018-12-23T01:41:37.060Z,2.33
2018-12-23T01:44:04.458Z,1.83
2018-12-23T01:46:31.954Z,1.90
2018-12-23T01:48:59.362Z,1.80
2018-12-23T01:51:27.990Z,2.40
2018-12-23T01:53:55.458Z,1.87
2018-12-23T01:56:22.894Z,1.70
2018-12-23T01:58:50.301Z,2.37
2018-12-23T02:01:17.748Z,1.80
2018-12-23T02:03:45.173Z,1.93
2018-12-23T02:06:13.440Z,2.07
2018-12-23T02:08:41.006Z,1.60
2018-12-23T02:11:09.240Z,1.93
2018-12-23T02:13:36.705Z,1.90
2018-12-23T02:16:04.270Z,2.10
2018-12-23T02:18:31.780Z,2.20
2018-12-23T02:20:59.190Z,1.63
2018-12-23T02:23:26.589Z,1.37
2018-12-23T02:25:53.993Z,1.80
2018-12-23T02:28:21.413Z,1.80
2018-12-23T02:30:48.817Z,1.77
2018-12-23T02:33:16.298Z,2.33
2018-12-23T02:35:43.768Z,1.73
2018-12-23T02:38:11.175Z,2.27
2018-12-23T02:40:38.646Z,1.70
2018-12-23T02:43:06.066Z,1.97
2018-12-23T02:45:33.475Z,1.87
2018-12-23T02:48:00.949Z,1.60
2018-12-23T02:50:29.657Z,2.20
2018-12-23T02:52:57.062Z,1.50
2018-12-23T02:55:24.549Z,1.80
2018-12-23T02:57:52.114Z,2.00
2018-12-23T03:00:19.613Z,1.80
2018-12-23T03:02:47.065Z,2.53
2018-12-23T03:05:14.532Z,1.50
2018-12-23T03:07:42.006Z,1.60
2018-12-23T03:10:09.524Z,1.83
2018-12-23T03:12:37.023Z,1.70
2018-12-23T03:15:04.549Z,1.80
2018-12-23T03:17:32.181Z,1.53
2018-12-23T03:19:59.837Z,2.00
2018-12-23T03:22:27.397Z,2.10
2018-12-23T03:24:54.962Z,1.73
2018-12-23T03:27:22.637Z,2.00
2018-12-23T03:29:50.110Z,1.97
2018-12-23T03:32:17.538Z,1.60
2018-12-23T03:34:45.018Z,1.83
2018-12-23T03:37:12.490Z,1.70
2018-12-23T03:39:40.002Z,1.60
2018-12-23T03:42:07.471Z,2.40
2018-12-23T03:44:34.941Z,1.87
2018-12-23T03:47:02.371Z,1.40
2018-12-23T03:49:29.801Z,1.23
2018-12-23T03:52:00.302Z,1.70
2018-12-23T03:54:27.777Z,1.60
2018-12-23T03:56:55.188Z,1.67
2018-12-23T03:59:22.589Z,2.10
2018-12-23T04:01:50.229Z,1.80
2018-12-23T04:04:17.701Z,2.00
2018-12-23T04:06:45.101Z,2.13
2018-12-23T04:09:12.520Z,2.13
2018-12-23T04:11:39.998Z,2.00
2018-12-23T04:14:07.473Z,3.00
2018-12-23T04:16:35.028Z,1.93
2018-12-23T04:19:02.506Z,2.27
2018-12-23T04:21:29.985Z,2.00
2018-12-23T04:23:57.470Z,2.07
2018-12-23T04:26:24.881Z,1.57
2018-12-23T04:28:52.363Z,1.93
2018-12-23T04:31:19.850Z,1.73
2018-12-23T04:33:47.252Z,2.43
2018-12-23T04:36:14.712Z,1.80
2018-12-23T04:38:42.133Z,1.90
2018-12-23T04:41:09.561Z,1.97
2018-12-23T04:43:37.460Z,1.83
2018-12-23T04:46:04.885Z,2.00
2018-12-23T04:48:32.299Z,1.80
2018-12-23T04:50:59.785Z,1.87
2018-12-23T04:53:27.197Z,2.20
2018-12-23T04:55:54.611Z,2.07
2018-12-23T04:58:22.100Z,3.53
2018-12-23T05:00:49.644Z,2.30
2018-12-23T05:03:17.561Z,2.17
2018-12-23T05:05:44.957Z,1.57
2018-12-23T05:08:12.369Z,1.90
2018-12-23T05:10:39.805Z,2.67
2018-12-23T05:13:07.214Z,1.80
2018-12-23T05:15:34.613Z,1.77
2018-12-23T05:18:02.029Z,1.73
2018-12-23T05:20:29.505Z,2.83
2018-12-23T05:22:56.985Z,2.33
2018-12-23T05:25:24.384Z,2.10
2018-12-23T05:27:51.872Z,1.53
2018-12-23T05:30:19.285Z,2.13
2018-12-23T05:32:46.751Z,1.87
2018-12-23T05:35:14.202Z,2.40
2018-12-23T05:37:41.669Z,1.90
2018-12-23T05:40:09.204Z,2.63
2018-12-23T05:42:36.653Z,2.23
2018-12-23T05:45:04.157Z,2.03
2018-12-23T05:47:31.568Z,2.17
2018-12-23T05:49:59.993Z,2.03
2018-12-23T05:52:27.414Z,2.53
2018-12-23T05:54:54.819Z,1.93
2018-12-23T05:57:22.428Z,1.80
2018-12-23T05:59:50.185Z,2.53
2018-12-23T06:02:17.549Z,1.73
2018-12-23T06:04:44.957Z,2.00
2018-12-23T06:07:12.369Z,2.23
2018-12-23T06:09:39.784Z,2.77
2018-12-23T06:12:07.209Z,1.93
2018-12-23T06:14:34.714Z,2.27
2018-12-23T06:17:02.121Z,2.40
2018-12-23T06:19:29.638Z,2.70
2018-12-23T06:21:57.018Z,2.90
2018-12-23T06:24:24.442Z,3.20
2018-12-23T06:26:51.878Z,2.47
2018-12-23T06:29:19.286Z,2.70
2018-12-23T06:31:46.701Z,2.90
2018-12-23T06:34:14.131Z,2.20
2018-12-23T06:36:41.537Z,2.30
2018-12-23T06:39:08.964Z,2.40
2018-12-23T06:41:36.470Z,2.37
2018-12-23T06:44:03.858Z,2.80
2018-12-23T06:46:31.381Z,2.07
2018-12-23T06:48:58.929Z,2.10
2018-12-23T06:51:28.098Z,1.73
2018-12-23T06:53:55.571Z,2.30
2018-12-23T06:56:23.057Z,2.07
2018-12-23T06:58:50.482Z,2.37
2018-12-23T07:01:17.886Z,2.40
2018-12-23T07:03:45.483Z,2.27
2018-12-23T07:06:13.043Z,1.77
2018-12-23T07:08:40.623Z,2.13
2018-12-23T07:11:08.114Z,1.83
2018-12-23T07:13:35.603Z,1.90
2018-12-23T07:16:03.898Z,2.00
2018-12-23T07:18:32.560Z,1.60
2018-12-23T07:21:00.400Z,2.27
2018-12-23T07:23:28.105Z,2.90
2018-12-23T07:25:55.676Z,2.27
2018-12-23T07:28:23.435Z,1.53
2018-12-23T07:30:50.991Z,1.80
2018-12-23T07:33:18.655Z,1.83
2018-12-23T07:35:46.506Z,2.20
2018-12-23T07:38:14.199Z,2.20
2018-12-23T07:40:41.629Z,2.13
2018-12-23T07:43:09.216Z,5.03
2018-12-23T07:45:36.660Z,2.00
2018-12-23T07:48:04.107Z,1.87
2018-12-23T07:50:31.526Z,1.97
2018-12-23T07:52:58.936Z,2.00
2018-12-23T07:55:26.414Z,2.07
2018-12-23T07:57:53.868Z,2.10
2018-12-23T08:00:21.345Z,1.70
2018-12-23T08:02:48.745Z,2.23
2018-12-23T08:05:16.182Z,2.10
2018-12-23T08:07:43.665Z,2.00
2018-12-23T08:10:11.069Z,2.10
2018-12-23T08:12:38.503Z,2.70
2018-12-23T08:15:06.090Z,1.90
2018-12-23T08:17:33.601Z,1.70
2018-12-23T08:20:01.004Z,2.00
2018-12-23T08:22:28.430Z,2.40
2018-12-23T08:24:57.137Z,2.20
2018-12-23T08:27:24.799Z,2.03
2018-12-23T08:29:52.280Z,2.33
2018-12-23T08:32:19.761Z,2.47
2018-12-23T08:34:48.409Z,2.20
2018-12-23T08:37:15.842Z,2.27
2018-12-23T08:39:43.261Z,1.90
2018-12-23T08:42:10.665Z,2.30
2018-12-23T08:44:38.123Z,1.63
2018-12-23T08:47:05.685Z,2.00
2018-12-23T08:49:33.117Z,2.60
2018-12-23T08:52:00.525Z,2.50
2018-12-23T08:54:27.936Z,1.77
2018-12-23T08:56:55.421Z,2.30
2018-12-23T08:59:22.907Z,2.67
2018-12-23T09:01:50.320Z,2.80
2018-12-23T09:04:17.758Z,2.23
2018-12-23T09:06:45.195Z,2.17
2018-12-23T09:09:12.678Z,2.30
2018-12-23T09:11:43.014Z,2.13
2018-12-23T09:14:09.489Z,2.30
2018-12-23T09:16:36.947Z,2.60
2018-12-23T09:19:04.425Z,2.07
2018-12-23T09:21:31.948Z,2.50
2018-12-23T09:23:59.439Z,2.00
2018-12-23T09:26:28.048Z,2.37
2018-12-23T09:28:55.458Z,2.30
2018-12-23T09:31:22.933Z,2.73
2018-12-23T09:33:50.346Z,2.37
2018-12-23T09:36:17.761Z,3.10
2018-12-23T09:38:45.233Z,2.80
2018-12-23T09:41:12.642Z,2.80
2018-12-23T09:43:40.076Z,4.13
2018-12-23T09:46:07.498Z,3.73
2018-12-23T09:48:36.340Z,3.40
2018-12-23T09:51:03.830Z,2.37
2018-12-23T09:53:31.228Z,2.73
2018-12-23T09:55:58.677Z,3.03
2018-12-23T09:58:26.084Z,2.57
2018-12-23T10:00:53.509Z,3.17
2018-12-23T10:03:20.948Z,2.17
2018-12-23T10:05:48.404Z,2.70
2018-12-23T10:08:15.886Z,2.67
2018-12-23T10:10:43.333Z,2.27
2018-12-23T10:13:10.800Z,3.17
2018-12-23T10:15:38.241Z,3.00
2018-12-23T10:18:05.656Z,3.33
2018-12-23T10:20:33.064Z,3.30
2018-12-23T10:23:00.498Z,3.17
2018-12-23T10:25:28.021Z,3.13
2018-12-23T10:27:56.390Z,2.87
2018-12-23T10:30:23.869Z,3.10
2018-12-23T10:32:51.329Z,2.70
2018-12-23T10:35:18.765Z,3.07
2018-12-23T10:37:46.289Z,3.20
2018-12-23T10:40:13.717Z,3.27
2018-12-23T10:42:41.246Z,3.40
2018-12-23T10:45:09.630Z,3.17
2018-12-23T10:47:37.046Z,2.83
2018-12-23T10:50:05.006Z,2.93
2018-12-23T10:52:32.421Z,3.47
2018-12-23T10:54:59.914Z,3.50
2018-12-23T10:57:27.324Z,3.10
2018-12-23T10:59:54.749Z,3.30
2018-12-23T11:02:22.173Z,3.03
2018-12-23T11:04:49.590Z,3.20
2018-12-23T11:07:17.110Z,3.23
2018-12-23T11:09:44.598Z,2.83
2018-12-23T11:12:12.015Z,2.80
2018-12-23T11:14:39.573Z,3.93
2018-12-23T11:17:07.029Z,3.30
2018-12-23T11:19:34.581Z,2.90
2018-12-23T11:22:02.037Z,3.07
2018-12-23T11:24:29.459Z,3.50
2018-12-23T11:26:56.969Z,3.40
2018-12-23T11:29:25.007Z,3.67
2018-12-23T11:31:52.582Z,3.50
2018-12-23T11:34:19.988Z,3.57
2018-12-23T11:36:47.397Z,3.20
2018-12-23T11:39:14.901Z,3.57
2018-12-23T11:41:42.374Z,4.17
2018-12-23T11:44:09.817Z,3.13
2018-12-23T11:46:37.233Z,4.43
2018-12-23T11:49:04.674Z,3.37
2018-12-23T11:51:32.283Z,4.00
2018-12-23T11:53:59.959Z,3.27
2018-12-23T11:56:27.360Z,3.07
2018-12-23T11:58:54.928Z,4.10
2018-12-23T12:01:22.578Z,3.90
2018-12-23T12:03:49.998Z,4.63
2018-12-23T12:06:17.493Z,5.00
2018-12-23T12:08:44.944Z,4.30
2018-12-23T12:11:12.352Z,4.03
2018-12-23T12:13:39.765Z,3.67
2018-12-23T12:16:07.294Z,4.40
2018-12-23T12:18:34.706Z,4.33
2018-12-23T12:21:02.550Z,4.20
2018-12-23T12:23:30.026Z,5.07
2018-12-23T12:25:57.450Z,4.67
2018-12-23T12:28:24.869Z,4.67
2018-12-23T12:30:52.321Z,4.73
2018-12-23T12:33:19.727Z,3.73
2018-12-23T12:35:47.202Z,4.60
2018-12-23T12:38:14.609Z,4.13
2018-12-23T12:40:42.060Z,4.23
2018-12-23T12:43:09.551Z,4.17
2018-12-23T12:45:36.948Z,3.83
2018-12-23T12:48:04.448Z,4.47
2018-12-23T12:50:31.837Z,4.67
2018-12-23T12:52:59.313Z,4.60
2018-12-23T12:55:26.733Z,4.37
2018-12-23T12:57:54.136Z,4.57
2018-12-23T13:00:21.552Z,5.30
2018-12-23T13:02:48.964Z,5.27
2018-12-23T13:05:16.377Z,5.37
2018-12-23T13:07:43.822Z,6.80
2018-12-23T13:10:11.278Z,5.80
2018-12-23T13:12:38.693Z,5.67
2018-12-23T13:15:06.152Z,6.80
2018-12-23T13:17:33.570Z,7.23
2018-12-23T13:20:00.980Z,6.57
2018-12-23T13:22:28.882Z,7.10
2018-12-23T13:24:56.254Z,8.30
2018-12-23T13:27:23.672Z,6.40
2018-12-23T13:29:51.081Z,7.83
2018-12-23T13:32:18.501Z,6.50
2018-12-23T13:34:45.934Z,7.37
2018-12-23T13:37:13.437Z,7.33
2018-12-23T13:39:40.873Z,7.67
2018-12-23T13:42:13.049Z,7.03
2018-12-23T13:44:42.392Z,7.10
2018-12-23T13:50:57.894Z,5.13
2018-12-23T13:53:30.399Z,4.93
2018-12-23T13:56:18.356Z,5.20
2018-12-23T13:58:48.058Z,4.97
2018-12-23T14:01:30.312Z,5.07
2018-12-23T14:04:17.537Z,5.73
2018-12-23T14:06:47.562Z,3.73
2018-12-23T14:09:19.904Z,3.83
2018-12-23T14:11:56.747Z,3.70
2018-12-23T14:14:24.970Z,4.03
2018-12-23T14:16:53.127Z,3.20
2018-12-23T14:19:21.311Z,3.50
2018-12-23T14:21:49.477Z,3.40
2018-12-23T14:24:17.628Z,2.60
2018-12-23T14:26:49.499Z,2.73
2018-12-23T14:29:17.854Z,3.33
2018-12-23T14:31:46.016Z,3.33
2018-12-23T14:34:14.170Z,3.47
2018-12-23T14:36:42.587Z,4.13
2018-12-23T14:39:10.755Z,3.20
2018-12-23T14:41:38.907Z,3.00
2018-12-23T14:44:07.067Z,3.03
2018-12-23T14:46:54.555Z,3.90
2018-12-23T15:10:23.193Z,2.63
2018-12-23T20:47:21.051Z,15.07
2018-12-23T20:56:08.458Z,13.93
2018-12-23T20:58:38.160Z,13.20
2018-12-23T21:01:19.802Z,13.20
2018-12-23T21:03:49.503Z,13.00
2018-12-23T21:06:35.482Z,12.70
2018-12-23T21:09:14.387Z,12.97
2018-12-23T21:11:53.693Z,12.13
2018-12-23T21:14:30.439Z,10.40
2018-12-23T21:17:06.029Z,7.67
2018-12-23T21:19:54.896Z,6.30
2018-12-23T21:22:28.054Z,4.40
2018-12-23T21:24:57.738Z,2.60
2018-12-23T21:27:36.136Z,2.57
2018-12-23T21:30:08.734Z,2.37
2018-12-23T21:32:41.182Z,2.03
2018-12-23T21:35:17.070Z,1.60
2018-12-23T21:37:50.710Z,1.43
2018-12-23T21:40:20.676Z,1.70
2018-12-23T21:42:50.389Z,1.70
2018-12-23T21:45:35.420Z,1.43
2018-12-23T21:48:14.254Z,1.63
2018-12-23T21:50:52.913Z,1.40
2018-12-23T21:53:41.611Z,1.30
2018-12-23T21:56:17.242Z,1.27
2018-12-23T21:58:49.766Z,1.23
2018-12-23T22:01:28.598Z,1.50
2018-12-23T22:03:58.354Z,1.70
2018-12-23T22:06:30.962Z,1.47
2018-12-23T22:09:17.107Z,1.63
2018-12-23T22:11:49.851Z,1.40
2018-12-23T22:14:18.018Z,1.40
2018-12-23T22:16:46.170Z,1.27
2018-12-23T22:19:14.334Z,1.27
2018-12-23T22:21:42.837Z,1.43
2018-12-23T22:24:10.987Z,1.43
2018-12-23T22:26:39.158Z,1.13
2018-12-23T22:29:07.298Z,1.30
2018-12-23T22:31:35.451Z,1.27
2018-12-23T22:34:03.642Z,1.50
2018-12-23T22:36:31.777Z,1.37
2018-12-23T22:38:59.929Z,1.07
2018-12-23T22:41:28.095Z,1.30
2018-12-23T22:43:56.274Z,1.50
2018-12-23T22:46:24.421Z,1.30
2018-12-23T22:48:52.566Z,1.00
2018-12-23T22:51:21.445Z,0.83
2018-12-23T22:53:49.695Z,1.13
2018-12-23T22:56:17.858Z,0.90
2018-12-23T22:58:45.999Z,0.77
2018-12-23T23:01:14.960Z,0.53
2018-12-23T23:03:43.179Z,0.47
2018-12-23T23:06:11.324Z,0.70
2018-12-23T23:08:39.471Z,0.40
2018-12-23T23:11:07.635Z,0.73
2018-12-23T23:13:35.817Z,0.87
2018-12-23T23:16:03.959Z,0.90
2018-12-23T23:18:32.126Z,0.90
2018-12-23T23:21:00.287Z,0.70
2018-12-23T23:23:29.133Z,0.40
2018-12-23T23:25:57.359Z,0.10
2018-12-23T23:28:25.512Z,0.17
2018-12-23T23:30:53.666Z,0.23
2018-12-23T23:33:21.816Z,0.20
2018-12-23T23:35:49.983Z,0.10
2018-12-23T23:38:18.126Z,0.10
2018-12-23T23:40:46.292Z,0.20
2018-12-23T23:43:14.444Z,0.30
2018-12-23T23:45:42.608Z,0.13
2018-12-23T23:48:10.767Z,0.30
2018-12-23T23:50:38.912Z,0.13
2018-12-23T23:53:07.051Z,0.40
2018-12-23T23:55:35.314Z,0.10
2018-12-23T23:58:03.475Z,0.20
